Time;durP1;ratioP1;P1;durP2;ratioP2;P2;SDS_P1;SDS_P2;PMS_P1;PMS_P2;Temp;Humidity;BMP_temperature;BMP_pressure;BME280_temperature;BME280_humidity;BME280_pressure;Samples;Min_cycle;Max_cycle;Signal;HPM_P1;HPM_P2
2022/01/17 00:00:47;;;;;;;27.13;7.47;;;;;;;-145.18;100.00;46720.94;5029556;28;20076;-67
2022/01/17 00:03:13;;;;;;;32.43;6.33;;;;;;;-145.18;100.00;46713.13;5029169;28;20080;-68
2022/01/17 00:05:38;;;;;;;20.67;4.80;;;;;;;-145.18;100.00;46732.66;5029476;28;20045;-68
2022/01/17 00:08:04;;;;;;;10.03;2.83;;;;;;;-145.18;100.00;46754.16;5029483;28;20050;-68
2022/01/17 00:10:29;;;;;;;15.63;1.77;;;;;;;-145.18;100.00;46801.03;5029716;28;20092;-69
2022/01/17 00:12:57;;;;;;;11.53;1.67;;;;;;;-145.18;100.00;46865.50;5029427;28;20045;-70
2022/01/17 00:15:44;;;;;;;8.73;1.70;;;;;;;-145.18;100.00;46988.56;5029057;28;20042;-70
2022/01/17 00:19:07;;;;;;;9.10;1.73;;;;;;;-145.18;100.00;47471.13;5028795;28;20371;-70
2022/01/17 00:20:56;;;;;;;11.20;1.88;;;;;;;-145.18;100.00;47586.38;5024903;28;20538;-70
2022/01/17 00:23:22;;;;;;;11.57;2.97;;;;;;;-145.18;100.00;47635.22;5029128;28;20044;-69
2022/01/17 00:25:47;;;;;;;13.53;1.53;;;;;;;-145.18;100.00;47619.59;5029395;28;20270;-70
2022/01/17 00:28:12;;;;;;;8.33;1.33;;;;;;;-145.18;100.00;47613.75;5029068;28;20041;-70
2022/01/17 00:30:38;;;;;;;11.50;1.60;;;;;;;-145.18;100.00;47611.78;5027759;28;20041;-71
2022/01/17 00:33:03;;;;;;;7.43;1.60;;;;;;;-145.18;100.00;47621.56;5028789;28;20109;-71
2022/01/17 00:35:28;;;;;;;12.37;1.53;;;;;;;-145.18;100.00;47613.75;5028329;28;20056;-68
2022/01/17 00:37:54;;;;;;;11.90;1.70;;;;;;;-145.18;100.00;47611.78;5029127;28;20053;-68
2022/01/17 00:40:20;;;;;;;6.73;1.20;;;;;;;-145.18;100.00;47621.56;5028608;28;20050;-68
2022/01/17 00:42:46;;;;;;;7.93;1.37;;;;;;;-145.18;100.00;47625.47;5029065;28;20348;-69
2022/01/17 00:45:15;;;;;;;9.60;1.40;;;;;;;-145.18;100.00;47629.38;5028250;28;20617;-70
2022/01/17 00:47:41;;;;;;;20.37;2.37;;;;;;;-145.18;100.00;47613.75;5028802;28;20060;-70
2022/01/17 00:50:08;;;;;;;15.63;1.63;;;;;;;-145.18;100.00;47621.56;5028588;28;20278;-71
2022/01/17 00:52:34;;;;;;;9.57;1.33;;;;;;;-145.18;100.00;47621.56;5028946;28;20699;-70
2022/01/17 00:54:59;;;;;;;6.57;0.80;;;;;;;-145.18;100.00;47621.56;5028718;28;20274;-70
2022/01/17 00:57:24;;;;;;;9.33;1.00;;;;;;;-145.18;100.00;47621.56;5028466;28;20525;-70
2022/01/17 00:59:51;;;;;;;8.87;1.37;;;;;;;-145.18;100.00;47611.78;5028227;28;20095;-70
2022/01/17 01:02:16;;;;;;;12.63;1.70;;;;;;;-145.18;100.00;47609.84;5026955;28;20045;-70
2022/01/17 01:04:42;;;;;;;4.93;0.80;;;;;;;-145.18;100.00;47592.25;5026895;28;20259;-71
2022/01/17 01:07:07;;;;;;;11.97;1.13;;;;;;;-145.18;100.00;47607.88;5028876;28;20045;-70
2022/01/17 01:09:35;;;;;;;14.60;1.23;;;;;;;-145.18;100.00;47603.97;5027785;28;20116;-70
2022/01/17 01:12:01;;;;;;;6.83;1.57;;;;;;;-145.18;100.00;47598.09;5028469;28;20041;-70
2022/01/17 01:14:26;;;;;;;5.27;1.10;;;;;;;-145.18;100.00;47611.78;5027558;28;20297;-70
2022/01/17 01:16:54;;;;;;;8.43;1.00;;;;;;;-145.18;100.00;47613.75;5027327;28;20045;-71
2022/01/17 01:19:27;;;;;;;12.33;0.93;;;;;;;-145.18;100.00;47598.09;5027792;28;20050;-71
2022/01/17 01:30:09;;;;;;;9.83;0.90;;;;;;;-145.18;100.00;47635.22;5028147;28;20285;-70
2022/01/17 01:32:42;;;;;;;10.60;1.37;;;;;;;-145.18;100.00;47619.59;5027573;28;20274;-71
2022/01/17 01:35:11;;;;;;;20.57;1.83;;;;;;;-145.18;100.00;47629.38;5028063;28;20330;-70
2022/01/17 01:37:36;;;;;;;9.87;1.57;;;;;;;-145.18;100.00;47650.88;5027920;28;20727;-71
2022/01/17 01:40:03;;;;;;;8.53;1.10;;;;;;;-145.18;100.00;47637.19;5027718;28;20263;-70
2022/01/17 01:42:31;;;;;;;6.00;1.20;;;;;;;-145.18;100.00;47637.19;5027713;28;20078;-71
2022/01/17 01:44:56;;;;;;;12.17;1.10;;;;;;;-145.18;100.00;47623.50;5027335;28;20275;-70
2022/01/17 01:47:27;;;;;;;12.67;0.87;;;;;;;-145.18;100.00;47645.00;5027633;28;20266;-71
2022/01/17 01:49:53;;;;;;;11.60;1.30;;;;;;;-145.18;100.00;47643.03;5027807;28;20394;-71
2022/01/17 01:52:19;;;;;;;6.40;1.30;;;;;;;-145.18;100.00;47629.38;5027540;28;20279;-72
2022/01/17 01:54:45;;;;;;;8.57;0.90;;;;;;;-145.18;100.00;47664.53;5028092;28;20866;-71
2022/01/17 01:57:11;;;;;;;9.27;1.07;;;;;;;-145.18;100.00;47678.22;5027787;28;20030;-71
2022/01/17 01:59:37;;;;;;;10.77;0.97;;;;;;;-145.18;100.00;47666.50;5026776;28;20033;-71
2022/01/17 02:02:03;;;;;;;14.83;1.33;;;;;;;-145.18;100.00;47680.16;5027743;28;20963;-71
2022/01/17 02:04:29;;;;;;;14.67;1.00;;;;;;;-145.18;100.00;47701.66;5025524;28;20037;-71
2022/01/17 02:06:55;;;;;;;15.30;2.43;;;;;;;-145.18;100.00;47682.13;5027521;28;20278;-71
2022/01/17 02:09:23;;;;;;;8.87;1.33;;;;;;;-145.18;100.00;47678.22;5027266;28;20327;-71
2022/01/17 02:11:49;;;;;;;9.20;1.17;;;;;;;-145.18;100.00;47689.94;5027679;28;20040;-69
2022/01/17 02:14:15;;;;;;;12.50;1.40;;;;;;;-145.18;100.00;47695.81;5026650;28;21250;-70
2022/01/17 02:16:41;;;;;;;9.80;1.13;;;;;;;-145.18;100.00;47699.72;5027527;28;20275;-71
2022/01/17 02:19:07;;;;;;;17.63;1.63;;;;;;;-145.18;100.00;47676.25;5018063;28;20475;-71
2022/01/17 02:21:47;;;;;;;6.37;1.43;;;;;;;-145.18;100.00;47691.91;5007407;28;20282;-71
2022/01/17 02:24:16;;;;;;;9.10;1.00;;;;;;;-145.18;100.00;47687.97;5007428;28;20046;-71
2022/01/17 02:26:42;;;;;;;11.00;1.00;;;;;;;-145.18;100.00;47687.97;5007382;28;20353;-71
2022/01/17 02:29:07;;;;;;;10.47;1.27;;;;;;;-145.18;100.00;47693.84;5022069;28;20310;-71
2022/01/17 02:31:33;;;;;;;11.37;1.20;;;;;;;-145.18;100.00;47695.81;5007696;28;20038;-71
2022/01/17 02:33:58;;;;;;;19.17;1.50;;;;;;;-145.18;100.00;47684.06;5007762;28;20114;-71
2022/01/17 02:36:24;;;;;;;12.63;1.63;;;;;;;-145.18;100.00;47711.44;5007183;28;20041;-69
2022/01/17 02:38:50;;;;;;;10.63;1.20;;;;;;;-145.18;100.00;47713.38;5006770;28;20042;-69
2022/01/17 02:41:16;;;;;;;9.43;1.50;;;;;;;-145.18;100.00;47711.44;5006334;28;20077;-69
2022/01/17 02:43:43;;;;;;;8.60;1.10;;;;;;;-145.18;100.00;47705.56;5006447;28;20365;-69
2022/01/17 02:48:36;;;;;;;10.33;1.33;;;;;;;-145.18;100.00;47705.56;5006404;28;20264;-69
2022/01/17 02:51:03;;;;;;;10.97;1.17;;;;;;;-145.18;100.00;47711.44;5022220;28;20046;-71
2022/01/17 02:53:29;;;;;;;11.83;1.40;;;;;;;-145.18;100.00;47709.47;5006919;28;20809;-71
2022/01/17 02:55:58;;;;;;;11.33;1.27;;;;;;;-145.18;100.00;47715.34;5006938;28;20330;-71
2022/01/17 02:58:25;;;;;;;13.97;1.13;;;;;;;-145.18;100.00;47705.56;5006609;28;20141;-69
2022/01/17 03:00:54;;;;;;;13.70;1.33;;;;;;;-145.18;100.00;47687.97;5006914;28;20264;-69
2022/01/17 03:03:25;;;;;;;15.63;1.67;;;;;;;-145.18;100.00;47715.34;5006508;28;20318;-69
2022/01/17 03:05:52;;;;;;;10.27;1.43;;;;;;;-145.18;100.00;47686.03;5006811;28;20273;-69
2022/01/17 03:08:22;;;;;;;11.27;1.27;;;;;;;-145.18;100.00;47682.13;5006716;28;20275;-69
2022/01/17 03:10:48;;;;;;;9.03;1.20;;;;;;;-145.18;100.00;47707.53;5006556;28;20333;-69
2022/01/17 03:13:16;;;;;;;13.97;1.93;;;;;;;-145.18;100.00;47678.22;5007065;28;20267;-71
2022/01/17 03:15:44;;;;;;;10.10;1.47;;;;;;;-145.18;100.00;47715.34;5006437;28;20337;-71
2022/01/17 03:18:10;;;;;;;14.60;1.17;;;;;;;-145.18;100.00;47691.91;5007478;28;20284;-71
2022/01/17 03:20:38;;;;;;;12.53;2.23;;;;;;;-145.18;100.00;47670.41;5006455;28;20341;-71
2022/01/17 03:23:06;;;;;;;9.60;1.40;;;;;;;-145.18;100.00;47703.63;5006893;28;20283;-71
2022/01/17 03:25:31;;;;;;;10.67;2.13;;;;;;;-145.18;100.00;47697.75;5005736;28;20354;-71
2022/01/17 03:27:57;;;;;;;19.63;1.93;;;;;;;-145.18;100.00;47689.94;5006741;28;20378;-71
2022/01/17 03:30:23;;;;;;;13.40;2.23;;;;;;;-145.18;100.00;47678.22;5005900;28;20500;-71
2022/01/17 03:32:49;;;;;;;14.13;1.53;;;;;;;-145.18;100.00;47686.03;5006962;28;20037;-71
2022/01/17 03:35:15;;;;;;;10.13;1.10;;;;;;;-145.18;100.00;47639.13;5006287;28;20331;-72
2022/01/17 03:37:41;;;;;;;6.93;1.20;;;;;;;-145.18;100.00;47543.41;5007277;28;20995;-71
2022/01/17 03:40:08;;;;;;;8.57;1.63;;;;;;;-145.18;100.00;47467.22;5020546;28;20046;-71
2022/01/17 03:42:33;;;;;;;15.07;1.90;;;;;;;-145.18;100.00;47365.63;5006277;28;20432;-71
2022/01/17 03:45:00;;;;;;;17.40;1.97;;;;;;;-145.18;100.00;47219.09;5006351;28;20283;-71
2022/01/17 03:47:26;;;;;;;13.13;1.67;;;;;;;-145.18;100.00;47162.44;5006508;28;20491;-71
2022/01/17 03:49:52;;;;;;;12.87;2.13;;;;;;;-145.18;100.00;47092.09;5006044;28;20334;-71
2022/01/17 03:52:17;;;;;;;17.27;2.17;;;;;;;-145.18;100.00;47078.44;5006841;28;20330;-71
2022/01/17 03:54:43;;;;;;;17.67;2.30;;;;;;;-145.18;100.00;46994.44;5007672;28;20133;-71
2022/01/17 03:57:09;;;;;;;13.37;1.87;;;;;;;-145.18;100.00;47006.16;5010173;28;20411;-71
2022/01/17 03:59:34;;;;;;;13.67;1.87;;;;;;;-145.18;100.00;46928.00;5009180;28;20048;-69
2022/01/17 04:02:00;;;;;;;15.07;2.00;;;;;;;-145.18;100.00;46953.41;5025251;28;20081;-69
2022/01/17 04:04:25;;;;;;;25.50;3.37;;;;;;;-145.18;100.00;46947.53;5008959;28;20495;-69
2022/01/17 04:06:50;;;;;;;16.93;2.57;;;;;;;-145.18;100.00;46914.34;5010558;28;20029;-71
2022/01/17 04:09:16;;;;;;;15.60;2.63;;;;;;;-145.18;100.00;46922.16;5009937;28;20046;-71
2022/01/17 04:11:42;;;;;;;15.67;2.87;;;;;;;-145.18;100.00;46890.91;5009207;28;20596;-71
2022/01/17 04:14:09;;;;;;;19.30;3.20;;;;;;;-145.18;100.00;46906.53;5009597;28;20567;-71
2022/01/17 04:16:35;;;;;;;17.63;2.60;;;;;;;-145.18;100.00;46879.19;5008959;28;20271;-71
2022/01/17 04:19:00;;;;;;;20.07;3.00;;;;;;;-145.18;100.00;46908.47;5009688;28;20281;-71
2022/01/17 04:21:31;;;;;;;19.03;3.13;;;;;;;-145.18;100.00;46879.19;5009048;28;20057;-72
2022/01/17 04:23:57;;;;;;;19.50;2.93;;;;;;;-145.18;100.00;46875.28;5025062;28;20026;-70
2022/01/17 04:26:22;;;;;;;18.43;2.97;;;;;;;-145.18;100.00;46847.91;5009051;28;20278;-71
2022/01/17 04:28:48;;;;;;;17.13;3.60;;;;;;;-145.18;100.00;46871.38;5009358;28;20045;-71
2022/01/17 04:31:13;;;;;;;22.03;4.13;;;;;;;-145.18;100.00;46845.97;5009132;28;20034;-70
2022/01/17 04:33:38;;;;;;;29.57;4.73;;;;;;;-145.18;100.00;46838.16;5009128;28;20046;-70
2022/01/17 04:36:06;;;;;;;23.43;4.97;;;;;;;-145.18;100.00;46838.16;5008929;28;20647;-70
2022/01/17 04:38:32;;;;;;;23.63;5.73;;;;;;;-145.18;100.00;46840.09;5009377;28;20048;-71
2022/01/17 04:41:03;;;;;;;24.90;7.07;;;;;;;-145.18;100.00;46810.81;5009780;28;20275;-70
2022/01/17 04:46:11;;;;;;;26.20;7.93;;;;;;;-145.18;100.00;46793.22;5008968;28;20287;-70
2022/01/17 04:48:37;;;;;;;39.10;8.40;;;;;;;-145.18;100.00;46785.41;5008685;28;20522;-70
2022/01/17 04:51:03;;;;;;;21.93;7.27;;;;;;;-145.18;100.00;46787.38;5008713;28;20271;-70
2022/01/17 04:53:30;;;;;;;21.80;6.90;;;;;;;-145.18;100.00;46791.28;5018032;28;20061;-70
2022/01/17 04:55:56;;;;;;;26.23;8.03;;;;;;;-145.18;100.00;46783.47;5069109;22;20635;-69
2022/01/17 04:58:23;;;;;;;29.63;8.27;;;;;;;-145.18;100.00;46769.78;5024575;28;20369;-69
2022/01/17 05:00:48;;;;;;;28.20;9.37;;;;;;;-145.18;100.00;46793.22;5026962;28;20266;-69
2022/01/17 05:03:14;;;;;;;23.27;7.70;;;;;;;-145.18;100.00;46789.31;5027290;28;20287;-70
2022/01/17 05:05:40;;;;;;;35.93;9.13;;;;;;;-145.18;100.00;46773.69;5026913;28;20124;-69
2022/01/17 05:08:06;;;;;;;26.43;8.53;;;;;;;-145.18;100.00;46773.69;5027692;28;20429;-69
2022/01/17 05:10:31;;;;;;;29.80;8.87;;;;;;;-145.18;100.00;46771.75;5027195;28;20116;-69
2022/01/17 05:12:57;;;;;;;34.50;10.87;;;;;;;-145.18;100.00;46767.84;5026553;28;20049;-69
2022/01/17 05:15:30;;;;;;;32.23;10.67;;;;;;;-145.18;100.00;46783.47;5027121;28;20044;-69
2022/01/17 05:18:23;;;;;;;25.53;9.23;;;;;;;-145.18;100.00;46767.84;5026275;28;20556;-69
2022/01/17 05:20:46;;;;;;;33.27;10.23;;;;;;;-145.18;100.00;46763.91;5026156;28;20309;-69
2022/01/17 05:23:11;;;;;;;28.43;9.87;;;;;;;-145.18;100.00;46754.16;5028402;28;20298;-69
2022/01/17 05:25:37;;;;;;;32.17;12.13;;;;;;;-145.18;100.00;46754.16;5027672;28;20052;-69
2022/01/17 05:28:03;;;;;;;38.57;12.73;;;;;;;-145.18;100.00;46756.09;5028017;28;20037;-69
2022/01/17 05:30:29;;;;;;;40.67;11.77;;;;;;;-145.18;100.00;46752.19;5027335;28;20037;-69
2022/01/17 05:32:54;;;;;;;30.43;12.17;;;;;;;-145.18;100.00;46734.63;5028717;28;20269;-68
2022/01/17 05:35:20;;;;;;;37.17;13.33;;;;;;;-145.18;100.00;46748.28;5027878;28;20117;-69
2022/01/17 05:37:47;;;;;;;40.80;11.87;;;;;;;-145.18;100.00;46732.66;5028033;28;20037;-69
2022/01/17 05:40:15;;;;;;;35.67;13.30;;;;;;;-145.18;100.00;46756.09;5026627;28;20259;-69
2022/01/17 05:42:40;;;;;;;38.93;13.50;;;;;;;-145.18;100.00;46748.28;5024194;28;20295;-68
2022/01/17 05:45:08;;;;;;;41.80;14.47;;;;;;;-145.18;100.00;46736.56;5023407;28;20953;-68
2022/01/17 05:47:34;;;;;;;30.57;12.00;;;;;;;-145.18;100.00;46732.66;5023937;28;20041;-69
2022/01/17 05:50:02;;;;;;;50.87;15.33;;;;;;;-145.18;100.00;46730.72;5027151;28;20274;-70
2022/01/17 05:52:31;;;;;;;38.57;15.63;;;;;;;-145.18;100.00;46730.72;5028136;28;20099;-69
2022/01/17 05:54:58;;;;;;;53.97;16.83;;;;;;;-145.18;100.00;46722.91;5030690;28;20762;-69
2022/01/17 05:57:24;;;;;;;37.30;17.27;;;;;;;-145.18;100.00;46715.09;5047657;28;20285;-68
2022/01/17 05:59:50;;;;;;;43.33;17.53;;;;;;;-145.18;100.00;46724.84;5047089;28;20849;-68
2022/01/17 06:02:15;;;;;;;45.93;17.27;;;;;;;-145.18;100.00;46717.03;5047264;28;20346;-69
2022/01/17 06:04:40;;;;;;;44.60;17.57;;;;;;;-145.18;100.00;46715.09;5047056;28;20102;-69
2022/01/17 06:07:06;;;;;;;46.03;16.73;;;;;;;-145.18;100.00;46730.72;5046029;28;20080;-70
2022/01/17 06:09:31;;;;;;;41.40;17.73;;;;;;;-145.18;100.00;46726.81;5047492;28;20037;-69
2022/01/17 06:11:57;;;;;;;48.87;19.70;;;;;;;-145.18;100.00;46715.09;5047111;28;20053;-68
2022/01/17 06:14:23;;;;;;;39.17;17.30;;;;;;;-145.18;100.00;46722.91;5045160;28;20083;-68
2022/01/17 06:16:49;;;;;;;50.97;18.93;;;;;;;-145.18;100.00;46713.13;5045434;28;20123;-69
2022/01/17 06:19:14;;;;;;;37.87;15.53;;;;;;;-145.18;100.00;46722.91;5028920;28;20044;-69
2022/01/17 06:21:40;;;;;;;51.93;19.27;;;;;;;-145.18;100.00;46728.75;5046109;28;20041;-70
2022/01/17 06:24:09;;;;;;;50.00;20.50;;;;;;;-145.18;100.00;46715.09;5035122;28;20056;-69
2022/01/17 06:26:35;;;;;;;48.03;20.60;;;;;;;-145.18;100.00;46707.28;5045274;28;20349;-69
2022/01/17 06:29:00;;;;;;;52.40;21.67;;;;;;;-145.18;100.00;46715.09;5046203;28;20266;-68
2022/01/17 06:31:26;;;;;;;53.00;23.00;;;;;;;-145.18;100.00;46715.09;5028343;28;20635;-69
2022/01/17 06:33:51;;;;;;;51.53;20.67;;;;;;;-145.18;100.00;46722.91;5046113;28;20041;-69
2022/01/17 06:36:16;;;;;;;71.33;23.03;;;;;;;-145.18;100.00;46705.31;5028122;28;20509;-69
2022/01/17 06:38:42;;;;;;;55.07;22.03;;;;;;;-145.18;100.00;46713.13;5047191;28;20451;-69
2022/01/17 06:41:07;;;;;;;55.53;21.33;;;;;;;-145.18;100.00;46728.75;5043648;28;20106;-69
2022/01/17 06:43:33;;;;;;;51.67;21.50;;;;;;;-145.18;100.00;46736.56;5044064;28;20127;-69
2022/01/17 06:45:58;;;;;;;53.07;21.43;;;;;;;-145.18;100.00;46719.00;5045127;28;20044;-69
2022/01/17 06:48:24;;;;;;;58.33;24.27;;;;;;;-145.18;100.00;46711.19;5046200;28;20036;-69
2022/01/17 06:50:49;;;;;;;50.27;24.20;;;;;;;-145.18;100.00;46705.31;5046868;28;20049;-69
2022/01/17 06:53:14;;;;;;;59.27;23.13;;;;;;;-145.18;100.00;46711.19;5046366;28;20045;-69
2022/01/17 06:55:40;;;;;;;56.37;24.10;;;;;;;-145.18;100.00;46711.19;5045359;28;20915;-69
2022/01/17 06:58:05;;;;;;;57.43;24.10;;;;;;;-145.18;100.00;46701.41;5011578;28;20053;-69
2022/01/17 07:00:31;;;;;;;64.27;25.07;;;;;;;-145.18;100.00;46715.09;5044995;28;20749;-69
2022/01/17 07:02:56;;;;;;;60.73;26.77;;;;;;;-145.18;100.00;46711.19;5039407;28;20052;-69
2022/01/17 07:05:22;;;;;;;62.90;25.80;;;;;;;-145.18;100.00;46713.13;5028535;28;20092;-68
2022/01/17 07:07:47;;;;;;;71.40;25.77;;;;;;;-145.18;100.00;46707.28;5044187;28;20049;-68
2022/01/17 07:10:12;;;;;;;58.83;24.07;;;;;;;-145.18;100.00;46711.19;5044794;28;20127;-70
2022/01/17 07:12:38;;;;;;;64.83;25.13;;;;;;;-145.18;100.00;46713.13;5046278;28;20045;-69
2022/01/17 07:15:05;;;;;;;61.50;21.80;;;;;;;-145.18;100.00;46715.09;5045866;28;20493;-68
2022/01/17 07:17:31;;;;;;;62.03;27.03;;;;;;;-145.18;100.00;46709.22;5045768;28;20621;-69
2022/01/17 07:19:57;;;;;;;50.53;20.00;;;;;;;-145.18;100.00;46715.09;5045869;28;20278;-68
2022/01/17 07:22:23;;;;;;;69.83;25.53;;;;;;;-145.18;100.00;46715.09;5031308;28;20053;-68
2022/01/17 07:24:48;;;;;;;58.33;22.53;;;;;;;-145.18;100.00;46709.22;5043949;28;20274;-68
2022/01/17 07:27:15;;;;;;;55.50;23.03;;;;;;;-145.18;100.00;46707.28;5044337;28;20132;-69
2022/01/17 07:29:42;;;;;;;55.70;22.67;;;;;;;-145.18;100.00;46707.28;5049112;28;20037;-68
2022/01/17 07:32:09;;;;;;;55.77;22.20;;;;;;;-145.18;100.00;46703.38;5049105;28;20290;-68
2022/01/17 07:34:34;;;;;;;79.03;26.80;;;;;;;-145.18;100.00;46697.50;5047464;28;20635;-68
2022/01/17 07:37:00;;;;;;;59.17;23.43;;;;;;;-145.18;100.00;46709.22;5046066;28;20350;-68
2022/01/17 07:39:26;;;;;;;70.97;24.57;;;;;;;-145.18;100.00;46695.56;5047876;28;20509;-68
2022/01/17 07:41:52;;;;;;;66.27;25.10;;;;;;;-145.18;100.00;46695.56;5049264;28;20140;-68
2022/01/17 07:44:21;;;;;;;71.90;25.00;;;;;;;-145.18;100.00;46697.50;5047708;28;20361;-68
2022/01/17 07:46:54;;;;;;;52.17;21.90;;;;;;;-145.18;100.00;46703.38;5031297;28;20037;-68
2022/01/17 07:49:22;;;;;;;62.93;23.93;;;;;;;-145.18;100.00;46677.97;5049092;28;20258;-68
2022/01/17 07:51:58;;;;;;;56.10;20.50;;;;;;;-145.18;100.00;46697.50;5048742;28;20348;-68
2022/01/17 07:54:25;;;;;;;62.03;21.33;;;;;;;-145.18;100.00;46717.03;5045733;28;20280;-68
2022/01/17 07:56:51;;;;;;;49.33;20.40;;;;;;;-145.18;100.00;46707.28;5048741;28;20706;-68
2022/01/17 07:59:17;;;;;;;56.70;18.17;;;;;;;-145.18;100.00;46689.69;5048567;28;20309;-68
2022/01/17 08:01:42;;;;;;;61.33;19.37;;;;;;;-145.18;100.00;46707.28;5048838;28;20043;-68
2022/01/17 08:04:09;;;;;;;53.67;20.00;;;;;;;-145.18;100.00;46709.22;5031219;28;20045;-68
2022/01/17 08:06:39;;;;;;;56.00;18.83;;;;;;;-145.18;100.00;46707.28;5048662;28;20037;-68
2022/01/17 08:09:20;;;;;;;51.90;18.70;;;;;;;-145.18;100.00;46695.56;5047764;28;20282;-68
2022/01/17 08:11:46;;;;;;;47.57;18.57;;;;;;;-145.18;100.00;46695.56;5048066;28;20282;-68
2022/01/17 08:14:11;;;;;;;51.90;18.77;;;;;;;-145.18;100.00;46697.50;5045696;28;20266;-68
2022/01/17 08:16:37;;;;;;;51.60;19.60;;;;;;;-145.18;100.00;46689.69;5047474;28;20040;-68
2022/01/17 08:19:04;;;;;;;47.27;15.53;;;;;;;-145.18;100.00;46699.47;5044375;28;20524;-68
2022/01/17 08:21:29;;;;;;;50.70;15.67;;;;;;;-145.18;100.00;46685.78;5047927;28;20044;-68
2022/01/17 08:23:55;;;;;;;38.90;14.47;;;;;;;-145.18;100.00;46703.38;5048366;28;20278;-70
2022/01/17 08:26:21;;;;;;;49.87;15.73;;;;;;;-145.18;100.00;46683.84;5048436;28;20131;-68
2022/01/17 08:28:47;;;;;;;45.63;14.00;;;;;;;-145.18;100.00;46697.50;5048427;28;20037;-69
2022/01/17 08:31:12;;;;;;;39.30;12.17;;;;;;;-145.18;100.00;46699.47;5046985;28;20273;-68
2022/01/17 08:33:37;;;;;;;46.07;12.67;;;;;;;-145.18;100.00;46683.84;5048647;28;20044;-68
2022/01/17 08:36:04;;;;;;;39.80;13.37;;;;;;;-145.18;100.00;46701.41;5047643;28;20132;-68
2022/01/17 08:38:30;;;;;;;37.27;12.57;;;;;;;-145.18;100.00;46699.47;5046713;28;20041;-68
2022/01/17 08:40:57;;;;;;;44.80;11.87;;;;;;;-145.18;100.00;46701.41;5029688;28;20319;-68
2022/01/17 08:43:24;;;;;;;33.50;9.83;;;;;;;-145.18;100.00;46703.38;5047116;28;20353;-68
2022/01/17 08:45:50;;;;;;;43.70;10.60;;;;;;;-145.18;100.00;46699.47;5047131;28;20273;-68
2022/01/17 08:48:15;;;;;;;38.37;12.90;;;;;;;-145.18;100.00;46705.31;5047946;28;20278;-68
2022/01/17 08:50:42;;;;;;;43.57;11.53;;;;;;;-145.18;100.00;46705.31;5047803;28;20103;-68
2022/01/17 08:53:10;;;;;;;44.50;11.93;;;;;;;-145.18;100.00;46711.19;5047529;28;20037;-68
2022/01/17 08:55:36;;;;;;;40.77;9.77;;;;;;;-145.18;100.00;46711.19;5047628;28;20282;-68
2022/01/17 08:58:03;;;;;;;31.30;8.47;;;;;;;-145.18;100.00;46715.09;5048213;28;20649;-68
2022/01/17 09:00:31;;;;;;;40.60;10.33;;;;;;;-145.18;100.00;46707.28;5045011;28;20270;-68
2022/01/17 09:02:57;;;;;;;37.53;9.50;;;;;;;-145.18;100.00;46722.91;5044295;28;20274;-68
2022/01/17 09:05:23;;;;;;;36.50;10.23;;;;;;;-145.18;100.00;46720.94;5047359;28;20282;-68
2022/01/17 09:07:48;;;;;;;31.90;10.33;;;;;;;-145.18;100.00;46713.13;5047374;28;20098;-68
2022/01/17 09:10:15;;;;;;;33.13;10.10;;;;;;;-145.18;100.00;46728.75;5029432;28;20045;-68
2022/01/17 09:12:41;;;;;;;42.33;10.37;;;;;;;-145.18;100.00;46713.13;5047167;28;20041;-68
2022/01/17 09:15:07;;;;;;;39.10;10.23;;;;;;;-145.18;100.00;46717.03;5047422;28;20281;-68
2022/01/17 09:17:32;;;;;;;38.83;10.37;;;;;;;-145.18;100.00;46720.94;5039435;28;20041;-68
2022/01/17 09:19:58;;;;;;;37.37;9.47;;;;;;;-145.18;100.00;46720.94;5028501;28;20041;-68
2022/01/17 09:22:23;;;;;;;40.10;8.90;;;;;;;-145.18;100.00;46740.47;5046583;28;20122;-68
2022/01/17 09:24:51;;;;;;;30.93;9.60;;;;;;;-145.18;100.00;46722.91;5029112;28;20056;-68
2022/01/17 09:27:16;;;;;;;25.60;8.23;;;;;;;-145.18;100.00;46728.75;5046202;28;20072;-68
2022/01/17 09:29:42;;;;;;;27.97;7.67;;;;;;;-145.18;100.00;46734.63;5046646;28;20762;-70
2022/01/17 09:32:08;;;;;;;22.23;5.87;;;;;;;-145.18;100.00;46742.44;5047218;28;20072;-68
2022/01/17 09:34:34;;;;;;;24.13;5.57;;;;;;;-145.18;100.00;46761.97;5046979;28;20053;-68
2022/01/17 09:37:00;;;;;;;34.53;6.00;;;;;;;-145.18;100.00;46748.28;5045145;28;20037;-68
2022/01/17 09:39:25;;;;;;;27.97;5.40;;;;;;;-145.18;100.00;46748.28;5045508;28;20347;-68
2022/01/17 09:41:51;;;;;;;23.60;4.80;;;;;;;-145.18;100.00;46758.06;5045298;28;20128;-68
2022/01/17 09:44:16;;;;;;;30.97;4.87;;;;;;;-145.18;100.00;46775.66;5037626;28;20045;-69
2022/01/17 09:46:45;;;;;;;27.50;5.90;;;;;;;-145.18;100.00;46799.09;5025504;28;20045;-68
2022/01/17 09:49:55;;;;;;;24.03;5.50;;;;;;;-145.18;100.00;46785.41;5044219;28;20045;-68
2022/01/17 09:52:08;;;;;;;21.13;4.67;;;;;;;-145.18;100.00;46793.22;5038525;28;20278;-68
2022/01/17 09:54:36;;;;;;;25.57;4.87;;;;;;;-145.18;100.00;46814.72;5045501;28;20278;-68
2022/01/17 09:57:06;;;;;;;30.43;5.30;;;;;;;-145.18;100.00;46795.19;5044361;28;20293;-68
2022/01/17 09:59:33;;;;;;;17.97;4.27;;;;;;;-145.18;100.00;46804.94;5044524;28;20301;-68
2022/01/17 10:01:59;;;;;;;32.23;5.67;;;;;;;-145.18;100.00;46824.47;5043480;28;20278;-68
2022/01/17 10:04:24;;;;;;;22.47;5.37;;;;;;;-145.18;100.00;46826.44;5040513;28;20285;-68
2022/01/17 10:06:54;;;;;;;44.10;5.77;;;;;;;-145.18;100.00;46810.81;5043751;28;20036;-69
2022/01/17 10:09:21;;;;;;;38.97;6.27;;;;;;;-145.18;100.00;46808.84;5023894;28;20137;-69
2022/01/17 10:12:11;;;;;;;27.03;5.13;;;;;;;-145.18;100.00;46808.84;5026038;28;20270;-69
2022/01/17 10:15:01;;;;;;;31.63;4.37;;;;;;;-145.18;100.00;46818.63;5044054;28;20389;-68
2022/01/17 10:17:50;;;;;;;26.73;5.33;;;;;;;-145.18;100.00;46801.03;5045350;28;20274;-68
2022/01/17 10:20:18;;;;;;;22.33;4.33;;;;;;;-145.18;100.00;46791.28;5045165;28;20285;-69
2022/01/17 10:23:05;;;;;;;30.53;6.07;;;;;;;-145.18;100.00;46801.03;5044940;28;20286;-68
2022/01/17 10:36:50;;;;;;;29.93;5.67;;;;;;;-145.18;100.00;46845.97;5045021;28;20641;-68
2022/01/17 10:39:16;;;;;;;20.67;3.93;;;;;;;-145.18;100.00;46834.25;5043938;28;20277;-68
2022/01/17 10:41:42;;;;;;;34.87;6.43;;;;;;;-145.18;100.00;46812.75;5044768;28;20788;-69
2022/01/17 10:44:08;;;;;;;30.43;4.97;;;;;;;-145.18;100.00;46832.28;5026429;28;20255;-69
2022/01/17 10:46:33;;;;;;;30.17;5.60;;;;;;;-145.18;100.00;46814.72;5044637;28;20489;-69
2022/01/17 10:48:59;;;;;;;34.80;5.13;;;;;;;-145.18;100.00;46844.00;5044854;28;20037;-69
2022/01/17 10:51:33;;;;;;;22.83;4.37;;;;;;;-145.18;100.00;46834.25;5032558;28;20044;-69
2022/01/17 10:54:13;;;;;;;26.07;6.13;;;;;;;-145.18;100.00;46851.81;5044723;28;20036;-69
2022/01/17 10:56:56;;;;;;;30.17;5.83;;;;;;;-145.18;100.00;46818.63;5044706;28;20278;-69
2022/01/17 10:59:31;;;;;;;36.63;6.13;;;;;;;-145.18;100.00;46844.00;5043806;28;20309;-69
2022/01/17 11:01:58;;;;;;;25.87;5.23;;;;;;;-145.18;100.00;46857.69;5044241;28;20278;-69
2022/01/17 11:04:50;;;;;;;23.63;4.53;;;;;;;-145.18;100.00;46830.34;5042424;28;20266;-68
2022/01/17 11:07:15;;;;;;;32.07;5.17;;;;;;;-145.18;100.00;46840.09;5027960;28;20278;-69
2022/01/17 11:09:48;;;;;;;28.33;4.50;;;;;;;-145.18;100.00;46830.34;5050020;28;20278;-69
2022/01/17 11:12:16;;;;;;;36.60;5.90;;;;;;;-145.18;100.00;46834.25;5049631;28;20071;-69
2022/01/17 11:14:43;;;;;;;33.03;6.87;;;;;;;-145.18;100.00;46849.88;5048210;28;20373;-69
2022/01/17 11:17:48;;;;;;;27.73;5.37;;;;;;;-145.18;100.00;46808.84;5047746;28;20281;-69
2022/01/17 11:20:18;;;;;;;30.47;4.17;;;;;;;-145.18;100.00;46853.78;4999580;28;20297;-69
2022/01/17 11:22:45;;;;;;;36.73;5.03;;;;;;;-145.18;100.00;46826.44;5049504;28;20297;-69
2022/01/17 11:25:15;;;;;;;38.80;4.47;;;;;;;-145.18;100.00;46834.25;5047719;28;20817;-69